createdAt,value
2022-09-24T00:01:33.210Z,5.40
2022-09-24T00:04:05.214Z,5.43
2022-09-24T00:06:36.710Z,5.75
2022-09-24T00:09:04.647Z,6.25
2022-09-24T00:11:32.200Z,5.53
2022-09-24T00:14:00.006Z,5.53
2022-09-24T00:16:31.489Z,6.80
2022-09-24T00:18:59.530Z,6.38
2022-09-24T00:21:29.641Z,5.22
2022-09-24T00:23:59.247Z,5.68
2022-09-24T00:26:44.658Z,5.28
2022-09-24T00:29:13.035Z,5.55
2022-09-24T00:31:40.265Z,5.80
2022-09-24T00:34:07.724Z,6.28
2022-09-24T00:36:34.664Z,4.97
2022-09-24T00:39:01.681Z,5.30
2022-09-24T00:41:31.324Z,5.53
2022-09-24T00:43:59.397Z,5.32
2022-09-24T00:46:31.699Z,5.22
2022-09-24T00:49:01.803Z,5.97
2022-09-24T00:51:31.627Z,5.00
2022-09-24T00:54:06.422Z,6.25
2022-09-24T00:56:36.647Z,6.40
2022-09-24T00:59:05.145Z,5.88
2022-09-24T01:01:32.180Z,5.93
2022-09-24T01:03:59.852Z,6.95
2022-09-24T01:06:26.904Z,6.47
2022-09-24T01:08:55.181Z,6.43
2022-09-24T01:11:24.804Z,6.30
2022-09-24T01:14:16.005Z,6.97
2022-09-24T01:16:49.851Z,5.97
2022-09-24T01:20:11.261Z,6.20
2022-09-24T01:22:46.813Z,6.22
2022-09-24T01:25:54.639Z,6.47
2022-09-24T01:28:55.626Z,5.55
2022-09-24T01:31:22.407Z,5.97
2022-09-24T01:33:53.488Z,5.53
2022-09-24T01:36:22.107Z,7.00
2022-09-24T01:38:50.459Z,6.25
2022-09-24T01:41:17.908Z,6.72
2022-09-24T01:43:45.031Z,6.65
2022-09-24T01:46:13.056Z,6.05
2022-09-24T01:48:40.651Z,6.32
2022-09-24T01:51:24.075Z,5.90
2022-09-24T01:53:58.996Z,6.30
2022-09-24T01:56:31.059Z,5.90
2022-09-24T01:59:17.999Z,6.75
2022-09-24T02:02:06.797Z,6.30
2022-09-24T02:04:38.852Z,6.38
2022-09-24T02:07:13.531Z,7.07
2022-09-24T02:09:42.824Z,6.72
2022-09-24T02:12:35.160Z,6.32
2022-09-24T02:15:07.882Z,6.68
2022-09-24T02:17:37.004Z,7.25
2022-09-24T02:20:13.216Z,6.75
2022-09-24T02:22:42.403Z,7.07
2022-09-24T02:25:12.798Z,7.85
2022-09-24T02:27:40.610Z,7.05
2022-09-24T02:30:09.966Z,7.00
2022-09-24T02:32:37.362Z,6.13
2022-09-24T02:35:07.335Z,7.93
2022-09-24T02:37:36.150Z,6.60
2022-09-24T02:40:07.613Z,7.53
2022-09-24T02:42:35.204Z,6.78
2022-09-24T02:45:02.464Z,6.30
2022-09-24T02:47:29.531Z,7.20
2022-09-24T02:49:56.359Z,6.60
2022-09-24T02:52:23.923Z,7.00
2022-09-24T02:54:50.973Z,7.20
2022-09-24T02:57:18.768Z,6.80
2022-09-24T02:59:46.485Z,7.55
2022-09-24T03:02:13.719Z,6.38
2022-09-24T03:04:41.503Z,6.70
2022-09-24T03:07:09.404Z,7.28
2022-09-24T03:09:36.267Z,7.07
2022-09-24T03:12:03.154Z,7.10
2022-09-24T03:14:29.987Z,7.22
2022-09-24T03:16:56.782Z,7.22
2022-09-24T03:19:23.705Z,6.72
2022-09-24T03:21:50.558Z,7.13
2022-09-24T03:24:17.546Z,7.03
2022-09-24T03:26:45.353Z,7.32
2022-09-24T03:29:12.276Z,7.22
2022-09-24T03:31:39.253Z,6.95
2022-09-24T03:34:06.144Z,6.70
2022-09-24T03:36:32.985Z,6.28
2022-09-24T03:39:00.114Z,6.82
2022-09-24T03:41:28.450Z,6.38
2022-09-24T03:43:55.983Z,6.15
2022-09-24T03:46:28.392Z,6.55
2022-09-24T03:48:56.171Z,6.35
2022-09-24T03:51:23.085Z,6.63
2022-09-24T03:53:49.978Z,6.57
2022-09-24T03:56:17.031Z,7.20
2022-09-24T03:58:48.130Z,8.65
2022-09-24T04:01:19.418Z,6.60
2022-09-24T04:03:46.900Z,6.70
2022-09-24T04:06:13.908Z,6.03
2022-09-24T04:08:40.824Z,6.00
2022-09-24T04:11:07.680Z,5.88
2022-09-24T04:13:34.483Z,6.40
2022-09-24T04:16:04.892Z,5.97
2022-09-24T04:18:35.715Z,5.38
2022-09-24T04:21:05.588Z,5.35
2022-09-24T04:23:32.425Z,6.55
2022-09-24T04:26:02.612Z,6.15
2022-09-24T04:28:30.491Z,5.28
2022-09-24T04:30:57.741Z,5.95
2022-09-24T04:33:24.726Z,6.35
2022-09-24T04:35:51.566Z,6.72
2022-09-24T04:38:19.719Z,5.63
2022-09-24T04:40:47.355Z,5.78
2022-09-24T04:43:14.446Z,5.97
2022-09-24T04:45:44.253Z,5.75
2022-09-24T04:48:11.381Z,5.60
2022-09-24T04:50:43.302Z,5.70
2022-09-24T04:53:12.538Z,5.90
2022-09-24T04:55:39.767Z,6.05
2022-09-24T04:58:06.709Z,5.88
2022-09-24T05:00:33.669Z,5.45
2022-09-24T05:03:05.338Z,6.65
2022-09-24T05:05:33.585Z,7.05
2022-09-24T05:08:01.709Z,5.22
2022-09-24T05:10:30.012Z,5.93
2022-09-24T05:12:56.866Z,6.15
2022-09-24T05:15:23.817Z,6.63
2022-09-24T05:17:50.675Z,5.80
2022-09-24T05:20:17.623Z,6.32
2022-09-24T05:22:46.114Z,6.20
2022-09-24T05:25:14.670Z,6.10
2022-09-24T05:27:51.611Z,6.18
2022-09-24T05:30:20.051Z,5.80
2022-09-24T05:32:49.601Z,5.72
2022-09-24T05:35:16.577Z,5.53
2022-09-24T05:37:44.137Z,5.45
2022-09-24T05:40:29.645Z,4.82
2022-09-24T05:43:01.552Z,5.43
2022-09-24T05:45:29.787Z,5.40
2022-09-24T05:47:56.704Z,5.25
2022-09-24T05:50:23.927Z,6.00
2022-09-24T05:52:50.852Z,6.10
2022-09-24T05:55:17.726Z,5.40
2022-09-24T05:57:44.632Z,5.10
2022-09-24T06:00:11.985Z,5.45
2022-09-24T06:02:39.038Z,5.80
2022-09-24T06:05:06.620Z,5.28
2022-09-24T06:07:33.594Z,6.10
2022-09-24T06:10:01.575Z,5.75
2022-09-24T06:12:34.962Z,5.93
2022-09-24T06:15:02.772Z,5.43
2022-09-24T06:17:31.436Z,6.28
2022-09-24T06:19:58.388Z,5.85
2022-09-24T06:22:28.635Z,5.65
2022-09-24T06:24:55.983Z,5.13
2022-09-24T06:27:22.884Z,6.10
2022-09-24T06:29:49.720Z,5.75
2022-09-24T06:32:16.556Z,5.25
2022-09-24T06:34:43.775Z,5.20
2022-09-24T06:37:10.618Z,5.95
2022-09-24T06:39:37.420Z,5.63
2022-09-24T06:42:04.509Z,6.05
2022-09-24T06:44:31.354Z,5.95
2022-09-24T06:46:58.498Z,5.80
2022-09-24T06:49:27.069Z,5.32
2022-09-24T06:51:58.736Z,5.50
2022-09-24T06:54:25.631Z,5.03
2022-09-24T06:56:52.765Z,5.10
2022-09-24T06:59:19.741Z,5.10
2022-09-24T07:01:46.705Z,6.22
2022-09-24T07:04:13.610Z,5.35
2022-09-24T07:06:59.113Z,5.30
2022-09-24T07:09:25.954Z,5.32
2022-09-24T07:11:52.978Z,5.53
2022-09-24T07:14:19.921Z,5.10
2022-09-24T07:16:48.375Z,4.80
2022-09-24T07:19:15.232Z,4.70
2022-09-24T07:21:42.033Z,5.53
2022-09-24T07:24:09.081Z,5.53
2022-09-24T07:26:35.926Z,4.75
2022-09-24T07:29:03.727Z,4.65
2022-09-24T07:31:30.734Z,4.97
2022-09-24T07:33:57.854Z,5.45
2022-09-24T07:36:24.732Z,4.90
2022-09-24T07:38:52.011Z,4.97
2022-09-24T07:41:20.476Z,5.20
2022-09-24T07:43:47.876Z,4.65
2022-09-24T07:46:14.875Z,5.53
2022-09-24T07:48:44.843Z,4.78
2022-09-24T07:51:11.819Z,4.38
2022-09-24T07:53:38.725Z,5.38
2022-09-24T07:56:05.921Z,5.38
2022-09-24T07:58:32.860Z,4.55
2022-09-24T08:01:00.939Z,4.70
2022-09-24T08:03:28.192Z,5.18
2022-09-24T08:05:59.961Z,4.45
2022-09-24T08:08:26.875Z,5.40
2022-09-24T08:10:54.131Z,4.57
2022-09-24T08:13:26.699Z,4.75
2022-09-24T08:16:01.232Z,4.10
2022-09-24T08:18:29.495Z,4.72
2022-09-24T08:20:56.359Z,4.97
2022-09-24T08:23:23.247Z,4.47
2022-09-24T08:25:50.253Z,4.57
2022-09-24T08:28:19.741Z,5.05
2022-09-24T08:30:46.787Z,4.57
2022-09-24T08:33:13.847Z,5.22
2022-09-24T08:35:40.760Z,5.07
2022-09-24T08:38:08.468Z,4.45
2022-09-24T08:41:12.465Z,5.05
2022-09-24T08:44:04.759Z,5.25
2022-09-24T08:46:59.393Z,4.13
2022-09-24T08:49:33.094Z,4.93
2022-09-24T08:52:11.586Z,5.30
2022-09-24T08:54:39.187Z,4.80
2022-09-24T08:57:12.558Z,6.05
2022-09-24T08:59:43.299Z,5.63
2022-09-24T09:02:18.650Z,5.32
2022-09-24T09:05:05.180Z,5.68
2022-09-24T09:07:44.167Z,5.03
2022-09-24T09:10:18.282Z,5.30
2022-09-24T09:12:56.906Z,5.05
2022-09-24T09:15:30.134Z,4.93
2022-09-24T09:18:21.409Z,4.93
2022-09-24T09:20:49.796Z,5.80
2022-09-24T09:23:21.955Z,5.07
2022-09-24T09:26:00.900Z,5.53
2022-09-24T09:28:28.744Z,5.53
2022-09-24T09:31:00.376Z,5.45
2022-09-24T09:33:54.014Z,6.72
2022-09-24T09:36:38.818Z,6.07
2022-09-24T09:39:11.678Z,6.40
2022-09-24T09:41:50.530Z,6.57
2022-09-24T09:44:29.860Z,6.20
2022-09-24T09:47:20.198Z,6.57
2022-09-24T09:49:49.282Z,7.13
2022-09-24T09:52:20.962Z,8.60
2022-09-24T09:54:48.714Z,8.15
2022-09-24T09:57:23.373Z,7.45
2022-09-24T09:59:53.533Z,10.65
2022-09-24T10:02:27.532Z,8.82
2022-09-24T10:05:02.806Z,11.10
2022-09-24T10:07:31.679Z,11.18
2022-09-24T10:10:11.698Z,14.02
2022-09-24T10:12:38.562Z,13.75
2022-09-24T10:15:17.327Z,11.88
2022-09-24T10:17:45.464Z,9.57
2022-09-24T10:20:16.657Z,8.48
2022-09-24T10:22:52.967Z,7.82
2022-09-24T10:25:24.675Z,8.73
2022-09-24T10:27:54.033Z,6.72
2022-09-24T10:30:33.680Z,6.10
2022-09-24T10:33:02.671Z,5.93
2022-09-24T10:35:35.907Z,5.70
2022-09-24T10:38:13.839Z,5.75
2022-09-24T10:40:41.356Z,6.20
2022-09-24T10:43:19.800Z,6.20
2022-09-24T10:45:56.196Z,5.82
2022-09-24T10:48:26.527Z,7.03
2022-09-24T10:50:59.603Z,6.40
2022-09-24T10:53:34.838Z,7.13
2022-09-24T10:56:11.732Z,6.32
2022-09-24T10:59:07.803Z,7.28
2022-09-24T11:01:46.680Z,7.20
2022-09-24T11:04:29.235Z,7.07
2022-09-24T11:07:08.234Z,7.10
2022-09-24T11:09:54.750Z,6.85
2022-09-24T11:12:46.561Z,6.50
2022-09-24T11:15:42.000Z,6.10
2022-09-24T11:18:10.703Z,6.97
2022-09-24T11:20:39.506Z,5.68
2022-09-24T11:23:15.472Z,6.53
2022-09-24T11:26:00.278Z,6.40
2022-09-24T11:28:57.630Z,5.90
2022-09-24T11:31:27.920Z,6.10
2022-09-24T11:34:21.278Z,6.35
2022-09-24T11:37:02.618Z,6.30
2022-09-24T11:39:39.102Z,6.90
2022-09-24T11:42:28.041Z,7.03
2022-09-24T11:45:16.354Z,6.35
2022-09-24T11:48:35.839Z,6.68
2022-09-24T11:51:02.692Z,6.85
2022-09-24T11:53:32.354Z,6.80
2022-09-24T11:56:03.361Z,6.45
2022-09-24T11:58:43.870Z,6.43
2022-09-24T12:01:18.287Z,6.70
2022-09-24T12:03:59.053Z,5.78
2022-09-24T12:06:35.857Z,7.25
2022-09-24T12:09:22.633Z,6.82
2022-09-24T12:11:54.555Z,6.88
2022-09-24T12:14:30.768Z,7.22
2022-09-24T12:17:01.711Z,7.65
2022-09-24T12:19:47.253Z,8.25
2022-09-24T12:22:15.880Z,7.18
2022-09-24T12:24:52.345Z,7.75
2022-09-24T12:27:29.708Z,8.73
2022-09-24T12:30:19.528Z,8.82
2022-09-24T12:32:57.891Z,8.75
2022-09-24T12:35:37.069Z,9.23
2022-09-24T12:38:17.053Z,8.35
2022-09-24T12:40:46.995Z,10.25
2022-09-24T12:43:25.342Z,10.02
2022-09-24T12:46:03.333Z,9.18
2022-09-24T12:48:34.791Z,10.50
2022-09-24T12:51:03.733Z,9.88
2022-09-24T12:53:38.559Z,8.75
2022-09-24T12:56:06.482Z,11.40
2022-09-24T12:58:39.086Z,9.93
2022-09-24T13:01:14.122Z,11.95
2022-09-24T13:03:46.897Z,13.23
2022-09-24T13:06:34.708Z,12.77
2022-09-24T13:09:02.269Z,13.30
2022-09-24T13:11:38.025Z,13.10
2022-09-24T13:14:13.895Z,13.95
2022-09-24T13:16:43.259Z,13.05
2022-09-24T13:19:40.985Z,13.27
2022-09-24T13:22:22.458Z,12.98
2022-09-24T13:24:52.118Z,12.15
2022-09-24T13:27:37.950Z,13.52
2022-09-24T13:30:16.861Z,13.50
2022-09-24T13:32:55.738Z,13.98
2022-09-24T13:35:33.997Z,15.25
2022-09-24T13:38:24.100Z,15.13
2022-09-24T13:41:02.816Z,15.75
2022-09-24T13:43:48.961Z,15.65
2022-09-24T13:46:17.990Z,15.52
2022-09-24T13:49:01.145Z,16.90
2022-09-24T13:51:30.857Z,17.02
2022-09-24T13:54:04.617Z,16.73
2022-09-24T13:56:31.840Z,16.02
2022-09-24T13:59:24.876Z,19.13
2022-09-24T14:01:52.205Z,19.23
2022-09-24T14:04:21.241Z,20.88
2022-09-24T14:06:55.098Z,20.80
2022-09-24T14:09:32.302Z,22.45
2022-09-24T14:12:12.966Z,23.77
2022-09-24T14:14:45.850Z,24.65
2022-09-24T14:17:14.482Z,25.35
2022-09-24T14:19:44.607Z,28.08
2022-09-24T14:22:36.072Z,26.90
2022-09-24T14:25:16.284Z,23.23
2022-09-24T14:27:49.292Z,19.05
2022-09-24T14:33:00.104Z,20.83
2022-09-24T14:35:30.707Z,37.53
2022-09-24T14:38:23.379Z,23.92
2022-09-24T14:41:05.196Z,21.13
2022-09-24T14:43:53.671Z,17.20
2022-09-24T14:46:58.893Z,15.77
2022-09-24T14:49:31.680Z,15.00
2022-09-24T14:52:02.554Z,15.32
2022-09-24T14:54:32.222Z,14.88
2022-09-24T14:57:17.096Z,14.52
2022-09-24T14:59:44.747Z,15.25
2022-09-24T15:02:19.639Z,16.65
2022-09-24T15:04:49.037Z,17.33
2022-09-24T15:07:18.327Z,15.93
2022-09-24T15:09:50.041Z,15.73
2022-09-24T15:12:32.167Z,15.10
2022-09-24T15:15:01.350Z,14.23
2022-09-24T15:17:35.378Z,15.18
2022-09-24T15:20:04.103Z,14.38
2022-09-24T15:22:31.586Z,14.00
2022-09-24T15:25:01.852Z,14.13
2022-09-24T15:27:33.206Z,15.30
2022-09-24T15:30:01.593Z,15.45
2022-09-24T15:32:31.151Z,16.17
2022-09-24T15:34:58.174Z,15.48
2022-09-24T15:37:27.247Z,15.55
2022-09-24T15:39:58.124Z,16.52
2022-09-24T15:42:26.555Z,18.55
2022-09-24T15:44:57.526Z,19.45
2022-09-24T15:47:24.504Z,18.40
2022-09-24T15:49:51.602Z,17.95
2022-09-24T15:52:27.984Z,19.15
2022-09-24T15:54:59.558Z,18.20
2022-09-24T15:57:26.700Z,17.17
2022-09-24T15:59:53.968Z,17.23
2022-09-24T16:02:29.852Z,17.25
2022-09-24T16:05:02.719Z,17.33
2022-09-24T16:07:30.691Z,17.38
2022-09-24T16:09:57.508Z,18.20
2022-09-24T16:12:28.183Z,17.83
2022-09-24T16:14:59.002Z,18.60
2022-09-24T16:17:26.748Z,18.75
2022-09-24T16:19:53.647Z,18.42
2022-09-24T16:22:20.900Z,18.85
2022-09-24T16:24:47.898Z,18.02
2022-09-24T16:27:14.835Z,18.13
2022-09-24T16:29:41.699Z,18.45
2022-09-24T16:32:08.619Z,19.60
2022-09-24T16:34:35.435Z,19.52
2022-09-24T16:39:53.143Z,25.10
2022-09-24T16:42:20.133Z,25.38
2022-09-24T16:44:47.096Z,24.42
2022-09-24T16:47:17.782Z,27.73
2022-09-24T16:49:44.734Z,28.88
2022-09-24T16:52:11.654Z,28.90
2022-09-24T16:54:38.530Z,25.33
2022-09-24T16:57:06.384Z,23.45
2022-09-24T16:59:33.615Z,24.13
2022-09-24T17:02:00.782Z,24.58
2022-09-24T17:04:28.447Z,24.77
2022-09-24T17:06:56.173Z,28.13
2022-09-24T17:09:42.081Z,28.23
2022-09-24T17:12:11.081Z,28.73
2022-09-24T17:14:38.494Z,32.40
2022-09-24T17:17:05.960Z,30.42
2022-09-24T17:19:32.884Z,29.33
2022-09-24T17:21:59.753Z,29.85
2022-09-24T17:24:26.627Z,30.85
2022-09-24T17:26:54.326Z,31.25
2022-09-24T17:29:22.430Z,28.35
2022-09-24T17:31:49.721Z,28.95
2022-09-24T17:34:16.997Z,29.75
2022-09-24T17:36:44.084Z,26.77
2022-09-24T17:39:12.931Z,27.10
2022-09-24T17:41:40.007Z,29.17
2022-09-24T17:44:07.292Z,27.35
2022-09-24T17:46:36.056Z,27.33
2022-09-24T17:49:03.241Z,27.55
2022-09-24T17:51:33.157Z,25.92
2022-09-24T17:54:02.136Z,25.83
2022-09-24T17:56:32.100Z,24.00
2022-09-24T17:58:59.301Z,24.00
2022-09-24T18:01:28.811Z,24.60
2022-09-24T18:03:57.423Z,23.38
2022-09-24T18:06:30.539Z,23.75
2022-09-24T18:09:01.089Z,23.88
2022-09-24T18:11:31.916Z,25.73
2022-09-24T18:13:59.992Z,23.77
2022-09-24T18:16:31.630Z,26.35
2022-09-24T18:19:00.052Z,28.98
2022-09-24T18:21:27.663Z,25.88
2022-09-24T18:23:56.068Z,23.95
2022-09-24T18:26:32.672Z,24.98
2022-09-24T18:29:01.757Z,22.95
2022-09-24T18:31:29.874Z,26.13
2022-09-24T18:34:04.020Z,26.27
2022-09-24T18:36:31.943Z,26.33
2022-09-24T18:38:58.864Z,26.83
2022-09-24T18:41:28.597Z,27.85
2022-09-24T18:43:58.742Z,29.02
2022-09-24T18:46:29.339Z,30.27
2022-09-24T18:48:57.587Z,31.05
2022-09-24T18:51:29.979Z,32.65
2022-09-24T18:54:00.933Z,30.65
2022-09-24T18:56:27.973Z,31.33
2022-09-24T18:58:59.887Z,31.92
2022-09-24T19:01:27.668Z,37.40
2022-09-24T19:03:55.325Z,33.75
2022-09-24T19:06:22.430Z,29.83
2022-09-24T19:08:49.276Z,34.30
2022-09-24T19:11:17.488Z,31.40
2022-09-24T19:13:49.011Z,31.40
2022-09-24T19:16:16.852Z,29.75
2022-09-24T19:18:44.040Z,32.70
2022-09-24T19:21:14.232Z,34.17
2022-09-24T19:23:47.476Z,32.45
2022-09-24T19:26:17.599Z,31.77
2022-09-24T19:28:45.558Z,32.00
2022-09-24T19:31:14.875Z,34.20
2022-09-24T19:33:42.190Z,35.08
2022-09-24T19:36:10.202Z,33.53
2022-09-24T19:38:37.578Z,37.42
2022-09-24T19:41:07.162Z,38.92
2022-09-24T19:43:34.922Z,37.88
2022-09-24T19:46:04.873Z,35.17
2022-09-24T19:48:32.982Z,30.67
2022-09-24T19:51:02.259Z,32.67
2022-09-24T19:53:31.444Z,33.47
2022-09-24T19:55:59.119Z,32.65
2022-09-24T19:58:26.744Z,34.17
2022-09-24T20:00:54.207Z,34.63
2022-09-24T20:03:21.047Z,34.85
2022-09-24T20:05:47.860Z,33.47
2022-09-24T20:08:15.012Z,35.10
2022-09-24T20:10:44.687Z,35.70
2022-09-24T20:13:13.075Z,35.53
2022-09-24T20:15:41.367Z,34.58
2022-09-24T20:18:11.808Z,36.28
2022-09-24T20:20:41.970Z,36.22
2022-09-24T20:23:10.898Z,38.00
2022-09-24T20:25:56.224Z,35.22
2022-09-24T20:28:23.039Z,37.17
2022-09-24T20:30:49.945Z,38.60
2022-09-24T20:33:18.534Z,41.83
2022-09-24T20:35:45.591Z,44.15
2022-09-24T20:38:12.490Z,47.55
2022-09-24T20:40:40.244Z,46.65
2022-09-24T20:43:07.255Z,47.20
2022-09-24T20:45:34.347Z,47.60
2022-09-24T20:48:01.451Z,47.05
2022-09-24T20:50:28.315Z,48.05
2022-09-24T20:52:55.486Z,41.80
2022-09-24T20:55:22.778Z,43.58
2022-09-24T20:57:49.926Z,38.70
2022-09-24T21:00:16.935Z,37.22
2022-09-24T21:02:44.605Z,40.55
2022-09-24T21:05:11.696Z,37.20
2022-09-24T21:07:40.326Z,36.13
2022-09-24T21:10:12.041Z,36.35
2022-09-24T21:12:39.672Z,36.13
2022-09-24T21:15:08.085Z,35.47
2022-09-24T21:17:35.264Z,37.50
2022-09-24T21:20:02.455Z,37.60
2022-09-24T21:22:29.351Z,42.67
2022-09-24T21:24:56.826Z,42.70
2022-09-24T21:27:23.919Z,37.85
2022-09-24T21:29:50.804Z,39.80
2022-09-24T21:32:18.120Z,46.15
2022-09-24T21:34:45.586Z,46.88
2022-09-24T21:37:14.418Z,46.45
2022-09-24T21:39:43.349Z,42.22
2022-09-24T21:42:10.413Z,42.40
2022-09-24T21:44:37.347Z,40.85
2022-09-24T21:47:04.926Z,37.22
2022-09-24T21:49:33.616Z,34.42
2022-09-24T21:52:00.552Z,38.20
2022-09-24T21:54:27.487Z,35.80
2022-09-24T21:56:54.470Z,35.13
2022-09-24T21:59:41.058Z,38.22
2022-09-24T22:02:10.245Z,37.22
2022-09-24T22:04:37.153Z,37.42
2022-09-24T22:07:04.098Z,37.67
2022-09-24T22:09:32.294Z,37.80
2022-09-24T22:12:00.603Z,39.17
2022-09-24T22:14:27.796Z,39.20
2022-09-24T22:16:55.394Z,39.90
2022-09-24T22:19:22.475Z,41.63
2022-09-24T22:21:49.368Z,45.45
2022-09-24T22:24:16.229Z,43.45
2022-09-24T22:26:43.127Z,45.10
2022-09-24T22:29:10.092Z,44.22
2022-09-24T22:31:36.905Z,44.55
2022-09-24T22:34:22.625Z,48.58
2022-09-24T22:36:49.425Z,48.13
2022-09-24T22:39:16.259Z,47.03
2022-09-24T22:41:44.073Z,47.63
2022-09-24T22:44:12.100Z,45.47
2022-09-24T22:46:39.654Z,46.65
2022-09-24T22:49:07.009Z,46.17
2022-09-24T22:51:34.533Z,46.55
2022-09-24T22:54:01.596Z,47.83
2022-09-24T22:56:30.114Z,45.85
2022-09-24T22:59:00.850Z,44.00
2022-09-24T23:01:33.441Z,44.10
2022-09-24T23:04:01.055Z,44.22
2022-09-24T23:06:28.323Z,45.17
2022-09-24T23:08:55.594Z,45.85
2022-09-24T23:11:30.532Z,47.10
2022-09-24T23:14:00.205Z,43.65
2022-09-24T23:16:29.625Z,43.78
2022-09-24T23:18:58.771Z,44.70
2022-09-24T23:21:27.587Z,42.58
2022-09-24T23:23:56.391Z,44.38
2022-09-24T23:26:24.782Z,44.97
2022-09-24T23:28:52.789Z,43.40
2022-09-24T23:31:25.616Z,43.15
2022-09-24T23:33:54.509Z,44.20
2022-09-24T23:36:22.310Z,42.50
2022-09-24T23:38:49.345Z,42.08
2022-09-24T23:41:16.696Z,42.55
2022-09-24T23:43:43.615Z,42.78
2022-09-24T23:46:11.376Z,41.75
2022-09-24T23:48:38.347Z,43.80
2022-09-24T23:51:06.148Z,44.25
2022-09-24T23:53:34.448Z,43.00
2022-09-24T23:56:02.153Z,42.55
2022-09-24T23:58:29.545Z,41.85
